Nearby METAR Reports

 

EGNM - Leeds And Bradford, United Kingdom
Distance from station: N 11mi, 18km
Updated: 01/10/2020 21:50
Clear
Clear
 Wind from NNE
Wind: NNE 5 mph , 7 km/h
Temperature: 7°C
Wind Chill: 6°C
Dew Point: 4°C
Humidity: 81%
Barometer: 994 hPa
Summary: Clear
Visibility: greater than 7 miles , 10 km
2020/10/01 21:50 EGNM 012150Z 02004KT CAVOK 07/04 Q0994
EGXU - Linton-On-Ouse, United Kingdom
Distance from station: NNE 28mi, 45km
Updated: 01/10/2020 20:50
Clear
Clear
 Wind from WNW
Wind: WNW 2 mph , 4 km/h
Temperature: 5°C
Dew Point: 4°C
Humidity: 93%
Barometer: 994 hPa
Clouds: Clear
Visibility: 6 miles , 10 km
2020/10/01 20:50 EGXU 012050Z AUTO 29002KT 9999 NCD 05/04 Q0994
 
EGCN - Doncaster Sheffield, United Kingdom
Distance from station: ESE 30mi, 45km
Updated: 01/10/2020 20:50
Clear
Clear
 Wind from varies
Wind: varies 1 mph , 2 km/h
Temperature: 6°C
Dew Point: 5°C
Humidity: 93%
Barometer: 995 hPa
Summary: Clear
Visibility: greater than 7 miles , 10 km
2020/10/01 20:50 EGCN 012050Z VRB01KT CAVOK 06/05 Q0995
EGXZ - Topcliffe RAF, United Kingdom
Distance from station: NNE 36mi, 57km
Updated: 01/10/2020 21:50
Clear
Clear
 Wind from NNW
Wind: NNW 3 mph , 6 km/h
Temperature: 5°C
Dew Point: 5°C
Humidity: 100%
Barometer: 994 hPa
Clouds: Clear
Visibility: 6 miles , 10 km
2020/10/01 21:50 EGXZ 012150Z AUTO 33003KT 9999 NCD 05/05 Q0994
 
EGCC - Manchester Intl, United Kingdom
Distance from station: SW 36mi, 58km
Updated: 01/10/2020 21:50
Clear
Clear
 Wind from E
Wind: E 6 mph , 9 km/h
Temperature: 5°C
Wind Chill: 3°C
Dew Point: 4°C
Humidity: 93%
Barometer: 993 hPa
Clouds: Clear
Visibility: 6 miles , 10 km
2020/10/01 21:50 EGCC 012150Z AUTO 08005KT 9999 NCD 05/04 Q0993
EGXE - Leeming RAF, United Kingdom
Distance from station: N 40mi, 65km
Updated: 01/10/2020 20:50
Clear
Clear
 Wind from W
Wind: W 2 mph , 4 km/h
Temperature: 5°C
Dew Point: 4°C
Humidity: 93%
Barometer: 994 hPa
Clouds: Clear
Visibility: 6 miles , 10 km
2020/10/01 20:50 EGXE 012050Z AUTO 26002KT 9999 NCD 05/04 Q0994